sensor_id;sensor_type;location;lat;lon;timestamp;temperature;humidity
5017;DHT22;2527;50.892;16.706;2023-11-22T00:01:10;6.80;99.90
5017;DHT22;2527;50.892;16.706;2023-11-22T00:03:35;6.70;99.90
5017;DHT22;2527;50.892;16.706;2023-11-22T00:06:01;6.80;99.90
5017;DHT22;2527;50.892;16.706;2023-11-22T00:08:27;6.80;99.90
5017;DHT22;2527;50.892;16.706;2023-11-22T00:10:52;6.80;99.90
5017;DHT22;2527;50.892;16.706;2023-11-22T00:13:18;6.80;99.90
5017;DHT22;2527;50.892;16.706;2023-11-22T00:15:43;6.80;99.90
5017;DHT22;2527;50.892;16.706;2023-11-22T00:18:09;6.80;99.90
5017;DHT22;2527;50.892;16.706;2023-11-22T00:20:34;6.80;99.90
5017;DHT22;2527;50.892;16.706;2023-11-22T00:23:00;6.80;99.90
5017;DHT22;2527;50.892;16.706;2023-11-22T00:25:26;6.80;99.90
5017;DHT22;2527;50.892;16.706;2023-11-22T00:27:52;6.80;99.90
5017;DHT22;2527;50.892;16.706;2023-11-22T00:30:17;6.80;99.90
5017;DHT22;2527;50.892;16.706;2023-11-22T00:32:43;6.80;99.90
5017;DHT22;2527;50.892;16.706;2023-11-22T00:35:09;6.70;99.90
5017;DHT22;2527;50.892;16.706;2023-11-22T00:37:34;6.80;99.90
5017;DHT22;2527;50.892;16.706;2023-11-22T00:40:00;6.70;99.90
5017;DHT22;2527;50.892;16.706;2023-11-22T00:42:31;6.70;99.90
5017;DHT22;2527;50.892;16.706;2023-11-22T00:44:57;5.30;99.90
5017;DHT22;2527;50.892;16.706;2023-11-22T00:47:22;8.20;99.90
5017;DHT22;2527;50.892;16.706;2023-11-22T00:49:48;6.70;99.90
5017;DHT22;2527;50.892;16.706;2023-11-22T00:52:13;6.70;99.90
5017;DHT22;2527;50.892;16.706;2023-11-22T00:54:39;6.70;99.90
5017;DHT22;2527;50.892;16.706;2023-11-22T00:57:04;6.70;99.90
5017;DHT22;2527;50.892;16.706;2023-11-22T00:59:32;6.70;99.90
5017;DHT22;2527;50.892;16.706;2023-11-22T01:01:57;6.70;99.90
5017;DHT22;2527;50.892;16.706;2023-11-22T01:04:23;6.70;99.90
5017;DHT22;2527;50.892;16.706;2023-11-22T01:06:49;6.60;99.90
5017;DHT22;2527;50.892;16.706;2023-11-22T01:09:15;6.60;99.90
5017;DHT22;2527;50.892;16.706;2023-11-22T01:11:40;9.10;99.90
5017;DHT22;2527;50.892;16.706;2023-11-22T01:14:06;6.60;99.90
5017;DHT22;2527;50.892;16.706;2023-11-22T01:16:32;6.60;99.90
5017;DHT22;2527;50.892;16.706;2023-11-22T01:18:57;6.60;99.90
5017;DHT22;2527;50.892;16.706;2023-11-22T01:21:23;6.60;99.90
5017;DHT22;2527;50.892;16.706;2023-11-22T01:23:48;6.60;99.90
5017;DHT22;2527;50.892;16.706;2023-11-22T01:26:14;6.60;99.90
5017;DHT22;2527;50.892;16.706;2023-11-22T01:28:42;6.60;99.90
5017;DHT22;2527;50.892;16.706;2023-11-22T01:31:13;6.60;99.90
5017;DHT22;2527;50.892;16.706;2023-11-22T01:33:38;6.60;99.90
5017;DHT22;2527;50.892;16.706;2023-11-22T01:36:04;6.60;99.90
5017;DHT22;2527;50.892;16.706;2023-11-22T01:38:30;6.60;99.90
5017;DHT22;2527;50.892;16.706;2023-11-22T01:40:56;6.50;99.90
5017;DHT22;2527;50.892;16.706;2023-11-22T01:43:22;6.60;99.90
5017;DHT22;2527;50.892;16.706;2023-11-22T01:45:49;6.60;99.90
5017;DHT22;2527;50.892;16.706;2023-11-22T01:48:15;6.60;99.90
5017;DHT22;2527;50.892;16.706;2023-11-22T01:50:41;6.50;99.90
5017;DHT22;2527;50.892;16.706;2023-11-22T01:53:08;6.50;99.90
5017;DHT22;2527;50.892;16.706;2023-11-22T01:55:34;6.50;99.90
5017;DHT22;2527;50.892;16.706;2023-11-22T01:58:00;6.50;99.90
5017;DHT22;2527;50.892;16.706;2023-11-22T02:00:27;6.50;99.90
5017;DHT22;2527;50.892;16.706;2023-11-22T02:02:56;6.50;99.90
5017;DHT22;2527;50.892;16.706;2023-11-22T02:05:21;6.50;99.90
5017;DHT22;2527;50.892;16.706;2023-11-22T02:07:47;6.50;99.90
5017;DHT22;2527;50.892;16.706;2023-11-22T02:10:12;6.40;99.90
5017;DHT22;2527;50.892;16.706;2023-11-22T02:12:38;6.40;99.90
5017;DHT22;2527;50.892;16.706;2023-11-22T02:15:04;6.40;99.90
5017;DHT22;2527;50.892;16.706;2023-11-22T02:17:30;6.40;99.90
5017;DHT22;2527;50.892;16.706;2023-11-22T02:19:55;6.40;99.90
5017;DHT22;2527;50.892;16.706;2023-11-22T02:22:21;6.50;99.90
5017;DHT22;2527;50.892;16.706;2023-11-22T02:24:47;8.20;99.90
5017;DHT22;2527;50.892;16.706;2023-11-22T02:27:12;6.40;99.90
5017;DHT22;2527;50.892;16.706;2023-11-22T02:29:38;6.40;99.90
5017;DHT22;2527;50.892;16.706;2023-11-22T02:32:03;6.40;99.90
5017;DHT22;2527;50.892;16.706;2023-11-22T02:34:29;6.50;99.90
5017;DHT22;2527;50.892;16.706;2023-11-22T02:36:55;6.40;99.90
5017;DHT22;2527;50.892;16.706;2023-11-22T02:39:20;6.40;99.90
5017;DHT22;2527;50.892;16.706;2023-11-22T02:41:46;6.40;99.90
5017;DHT22;2527;50.892;16.706;2023-11-22T02:44:11;6.40;99.90
5017;DHT22;2527;50.892;16.706;2023-11-22T02:46:42;6.40;99.90
5017;DHT22;2527;50.892;16.706;2023-11-22T02:49:08;6.40;99.90
5017;DHT22;2527;50.892;16.706;2023-11-22T02:51:35;6.40;99.90
5017;DHT22;2527;50.892;16.706;2023-11-22T02:54:00;6.40;99.90
5017;DHT22;2527;50.892;16.706;2023-11-22T02:56:26;6.40;99.90
5017;DHT22;2527;50.892;16.706;2023-11-22T02:58:52;6.30;99.90
5017;DHT22;2527;50.892;16.706;2023-11-22T03:01:17;6.40;99.90
5017;DHT22;2527;50.892;16.706;2023-11-22T03:03:43;6.40;99.90
5017;DHT22;2527;50.892;16.706;2023-11-22T03:06:09;6.30;99.90
5017;DHT22;2527;50.892;16.706;2023-11-22T03:08:34;6.40;99.90
5017;DHT22;2527;50.892;16.706;2023-11-22T03:11:00;6.30;99.90
5017;DHT22;2527;50.892;16.706;2023-11-22T03:13:27;6.30;99.90
5017;DHT22;2527;50.892;16.706;2023-11-22T03:15:53;6.30;99.90
5017;DHT22;2527;50.892;16.706;2023-11-22T03:18:18;6.30;99.90
5017;DHT22;2527;50.892;16.706;2023-11-22T03:20:44;6.30;99.90
5017;DHT22;2527;50.892;16.706;2023-11-22T03:23:10;6.30;99.90
5017;DHT22;2527;50.892;16.706;2023-11-22T03:25:36;6.30;99.90
5017;DHT22;2527;50.892;16.706;2023-11-22T03:28:01;6.30;99.90
5017;DHT22;2527;50.892;16.706;2023-11-22T03:30:27;6.30;99.90
5017;DHT22;2527;50.892;16.706;2023-11-22T03:32:52;6.30;99.90
5017;DHT22;2527;50.892;16.706;2023-11-22T03:35:19;6.30;99.90
5017;DHT22;2527;50.892;16.706;2023-11-22T03:37:46;6.30;99.90
5017;DHT22;2527;50.892;16.706;2023-11-22T03:40:12;6.30;99.90
5017;DHT22;2527;50.892;16.706;2023-11-22T03:42:39;6.30;99.90
5017;DHT22;2527;50.892;16.706;2023-11-22T03:45:05;6.30;99.90
5017;DHT22;2527;50.892;16.706;2023-11-22T03:47:31;6.30;99.90
5017;DHT22;2527;50.892;16.706;2023-11-22T03:49:58;6.30;99.90
5017;DHT22;2527;50.892;16.706;2023-11-22T03:52:24;6.30;99.90
5017;DHT22;2527;50.892;16.706;2023-11-22T03:54:50;6.30;99.90
5017;DHT22;2527;50.892;16.706;2023-11-22T03:57:16;6.30;99.90
5017;DHT22;2527;50.892;16.706;2023-11-22T03:59:42;6.30;99.90
5017;DHT22;2527;50.892;16.706;2023-11-22T04:02:08;6.30;99.90
5017;DHT22;2527;50.892;16.706;2023-11-22T04:04:34;6.30;99.90
5017;DHT22;2527;50.892;16.706;2023-11-22T04:07:00;6.30;99.90
5017;DHT22;2527;50.892;16.706;2023-11-22T04:09:25;6.30;99.90
5017;DHT22;2527;50.892;16.706;2023-11-22T04:11:51;6.20;99.90
5017;DHT22;2527;50.892;16.706;2023-11-22T04:14:17;6.20;99.90
5017;DHT22;2527;50.892;16.706;2023-11-22T04:16:45;6.90;99.90
5017;DHT22;2527;50.892;16.706;2023-11-22T04:19:11;6.20;99.90
5017;DHT22;2527;50.892;16.706;2023-11-22T04:21:36;6.20;99.90
5017;DHT22;2527;50.892;16.706;2023-11-22T04:24:02;6.20;99.90
5017;DHT22;2527;50.892;16.706;2023-11-22T04:26:28;6.20;99.90
5017;DHT22;2527;50.892;16.706;2023-11-22T04:28:53;6.20;99.90
5017;DHT22;2527;50.892;16.706;2023-11-22T04:31:19;6.20;99.90
5017;DHT22;2527;50.892;16.706;2023-11-22T04:33:45;6.20;99.90
5017;DHT22;2527;50.892;16.706;2023-11-22T04:36:10;6.20;99.90
5017;DHT22;2527;50.892;16.706;2023-11-22T04:38:37;6.20;99.90
5017;DHT22;2527;50.892;16.706;2023-11-22T04:41:03;6.20;99.90
5017;DHT22;2527;50.892;16.706;2023-11-22T04:43:29;6.20;99.90
5017;DHT22;2527;50.892;16.706;2023-11-22T04:45:54;6.20;99.90
5017;DHT22;2527;50.892;16.706;2023-11-22T04:48:20;6.20;99.90
5017;DHT22;2527;50.892;16.706;2023-11-22T04:50:46;6.20;99.90
5017;DHT22;2527;50.892;16.706;2023-11-22T04:53:11;6.20;99.90
5017;DHT22;2527;50.892;16.706;2023-11-22T04:55:37;6.20;99.90
5017;DHT22;2527;50.892;16.706;2023-11-22T04:58:03;6.20;99.90
5017;DHT22;2527;50.892;16.706;2023-11-22T05:00:28;6.20;99.90
5017;DHT22;2527;50.892;16.706;2023-11-22T05:02:54;6.10;99.90
5017;DHT22;2527;50.892;16.706;2023-11-22T05:05:20;6.10;99.90
5017;DHT22;2527;50.892;16.706;2023-11-22T05:07:46;6.10;99.90
5017;DHT22;2527;50.892;16.706;2023-11-22T05:10:12;6.10;99.90
5017;DHT22;2527;50.892;16.706;2023-11-22T05:12:39;6.10;99.90
5017;DHT22;2527;50.892;16.706;2023-11-22T05:15:05;6.10;99.90
5017;DHT22;2527;50.892;16.706;2023-11-22T05:17:30;6.10;99.90
5017;DHT22;2527;50.892;16.706;2023-11-22T05:19:56;6.00;99.90
5017;DHT22;2527;50.892;16.706;2023-11-22T05:22:21;6.10;99.90
5017;DHT22;2527;50.892;16.706;2023-11-22T05:24:48;4.60;99.90
5017;DHT22;2527;50.892;16.706;2023-11-22T05:27:14;6.10;99.90
5017;DHT22;2527;50.892;16.706;2023-11-22T05:29:40;6.10;99.90
5017;DHT22;2527;50.892;16.706;2023-11-22T05:32:05;6.10;99.90
5017;DHT22;2527;50.892;16.706;2023-11-22T05:34:32;6.00;99.90
5017;DHT22;2527;50.892;16.706;2023-11-22T05:36:57;6.10;99.90
5017;DHT22;2527;50.892;16.706;2023-11-22T05:39:23;6.20;99.90
5017;DHT22;2527;50.892;16.706;2023-11-22T05:41:50;6.00;99.90
5017;DHT22;2527;50.892;16.706;2023-11-22T05:44:15;6.00;99.90
5017;DHT22;2527;50.892;16.706;2023-11-22T05:46:41;6.10;99.90
5017;DHT22;2527;50.892;16.706;2023-11-22T05:49:07;6.00;99.90
5017;DHT22;2527;50.892;16.706;2023-11-22T05:51:33;6.00;99.90
5017;DHT22;2527;50.892;16.706;2023-11-22T05:53:59;6.00;99.90
5017;DHT22;2527;50.892;16.706;2023-11-22T05:56:25;6.00;99.90
5017;DHT22;2527;50.892;16.706;2023-11-22T05:58:51;6.00;99.90
5017;DHT22;2527;50.892;16.706;2023-11-22T06:01:17;6.00;99.90
5017;DHT22;2527;50.892;16.706;2023-11-22T06:03:42;6.00;99.90
5017;DHT22;2527;50.892;16.706;2023-11-22T06:06:08;6.00;99.90
5017;DHT22;2527;50.892;16.706;2023-11-22T06:08:34;6.00;99.90
5017;DHT22;2527;50.892;16.706;2023-11-22T06:10:59;6.00;99.90
5017;DHT22;2527;50.892;16.706;2023-11-22T06:13:28;6.30;99.90
5017;DHT22;2527;50.892;16.706;2023-11-22T06:15:53;6.00;99.90
5017;DHT22;2527;50.892;16.706;2023-11-22T06:18:22;6.00;99.90
5017;DHT22;2527;50.892;16.706;2023-11-22T06:20:48;5.90;99.90
5017;DHT22;2527;50.892;16.706;2023-11-22T06:23:13;6.80;99.90
5017;DHT22;2527;50.892;16.706;2023-11-22T06:25:40;5.90;99.90
5017;DHT22;2527;50.892;16.706;2023-11-22T06:28:07;5.90;99.90
5017;DHT22;2527;50.892;16.706;2023-11-22T06:30:33;6.30;99.90
5017;DHT22;2527;50.892;16.706;2023-11-22T06:33:00;5.90;99.90
5017;DHT22;2527;50.892;16.706;2023-11-22T06:35:26;5.90;99.90
5017;DHT22;2527;50.892;16.706;2023-11-22T06:37:52;5.90;99.90
5017;DHT22;2527;50.892;16.706;2023-11-22T06:40:18;5.90;99.90
5017;DHT22;2527;50.892;16.706;2023-11-22T06:42:45;5.90;99.90
5017;DHT22;2527;50.892;16.706;2023-11-22T06:45:11;5.90;99.90
5017;DHT22;2527;50.892;16.706;2023-11-22T06:47:41;5.90;99.90
5017;DHT22;2527;50.892;16.706;2023-11-22T06:50:08;5.90;99.90
5017;DHT22;2527;50.892;16.706;2023-11-22T06:52:40;5.90;99.90
5017;DHT22;2527;50.892;16.706;2023-11-22T06:55:07;5.90;99.90
5017;DHT22;2527;50.892;16.706;2023-11-22T06:57:37;5.90;99.90
5017;DHT22;2527;50.892;16.706;2023-11-22T07:00:04;5.90;99.90
5017;DHT22;2527;50.892;16.706;2023-11-22T07:02:33;5.90;99.90
5017;DHT22;2527;50.892;16.706;2023-11-22T07:05:00;5.90;99.90
5017;DHT22;2527;50.892;16.706;2023-11-22T07:07:26;5.90;99.90
5017;DHT22;2527;50.892;16.706;2023-11-22T07:09:52;5.90;99.90
5017;DHT22;2527;50.892;16.706;2023-11-22T07:12:18;5.90;99.90
5017;DHT22;2527;50.892;16.706;2023-11-22T07:14:44;5.90;99.90
5017;DHT22;2527;50.892;16.706;2023-11-22T07:17:10;5.90;99.90
5017;DHT22;2527;50.892;16.706;2023-11-22T07:19:36;5.80;99.90
5017;DHT22;2527;50.892;16.706;2023-11-22T07:22:04;5.80;99.90
5017;DHT22;2527;50.892;16.706;2023-11-22T07:24:29;5.90;99.90
5017;DHT22;2527;50.892;16.706;2023-11-22T07:26:59;5.80;99.90
5017;DHT22;2527;50.892;16.706;2023-11-22T07:29:26;5.80;99.90
5017;DHT22;2527;50.892;16.706;2023-11-22T07:31:54;5.80;99.90
5017;DHT22;2527;50.892;16.706;2023-11-22T07:34:21;5.90;99.90
5017;DHT22;2527;50.892;16.706;2023-11-22T07:36:47;5.80;99.90
5017;DHT22;2527;50.892;16.706;2023-11-22T07:39:13;5.80;99.90
5017;DHT22;2527;50.892;16.706;2023-11-22T07:41:39;5.80;99.90
5017;DHT22;2527;50.892;16.706;2023-11-22T07:44:05;5.80;99.90
5017;DHT22;2527;50.892;16.706;2023-11-22T07:46:31;5.80;99.90
5017;DHT22;2527;50.892;16.706;2023-11-22T07:48:56;5.80;99.90
5017;DHT22;2527;50.892;16.706;2023-11-22T07:51:22;5.80;99.90
5017;DHT22;2527;50.892;16.706;2023-11-22T07:53:50;5.80;99.90
5017;DHT22;2527;50.892;16.706;2023-11-22T07:56:16;5.80;99.90
5017;DHT22;2527;50.892;16.706;2023-11-22T07:58:41;5.80;99.90
5017;DHT22;2527;50.892;16.706;2023-11-22T08:01:07;5.80;99.90
5017;DHT22;2527;50.892;16.706;2023-11-22T08:03:39;5.80;99.90
5017;DHT22;2527;50.892;16.706;2023-11-22T08:06:05;5.80;99.90
5017;DHT22;2527;50.892;16.706;2023-11-22T08:08:31;5.80;99.90
5017;DHT22;2527;50.892;16.706;2023-11-22T08:11:00;5.90;99.90
5017;DHT22;2527;50.892;16.706;2023-11-22T08:13:27;5.80;99.90
5017;DHT22;2527;50.892;16.706;2023-11-22T08:15:53;7.70;99.90
5017;DHT22;2527;50.892;16.706;2023-11-22T08:18:19;5.80;99.90
5017;DHT22;2527;50.892;16.706;2023-11-22T08:20:45;5.20;99.90
5017;DHT22;2527;50.892;16.706;2023-11-22T08:23:12;5.80;99.90
5017;DHT22;2527;50.892;16.706;2023-11-22T08:25:40;5.80;99.90
5017;DHT22;2527;50.892;16.706;2023-11-22T08:28:06;5.80;99.90
5017;DHT22;2527;50.892;16.706;2023-11-22T08:30:34;5.80;99.90
5017;DHT22;2527;50.892;16.706;2023-11-22T08:33:03;5.80;99.90
5017;DHT22;2527;50.892;16.706;2023-11-22T08:35:30;5.80;99.90
5017;DHT22;2527;50.892;16.706;2023-11-22T08:37:56;5.80;99.90
5017;DHT22;2527;50.892;16.706;2023-11-22T08:40:23;5.80;99.90
5017;DHT22;2527;50.892;16.706;2023-11-22T08:42:53;5.90;99.90
5017;DHT22;2527;50.892;16.706;2023-11-22T08:45:19;5.90;99.90
5017;DHT22;2527;50.892;16.706;2023-11-22T08:47:45;5.80;99.90
5017;DHT22;2527;50.892;16.706;2023-11-22T08:50:11;5.80;99.90
5017;DHT22;2527;50.892;16.706;2023-11-22T08:52:38;5.90;99.90
5017;DHT22;2527;50.892;16.706;2023-11-22T08:55:05;5.90;99.90
5017;DHT22;2527;50.892;16.706;2023-11-22T08:57:35;5.80;99.90
5017;DHT22;2527;50.892;16.706;2023-11-22T09:00:01;5.90;99.90
5017;DHT22;2527;50.892;16.706;2023-11-22T09:02:32;5.90;99.90
5017;DHT22;2527;50.892;16.706;2023-11-22T09:04:58;5.90;99.90
5017;DHT22;2527;50.892;16.706;2023-11-22T09:07:24;5.90;99.90
5017;DHT22;2527;50.892;16.706;2023-11-22T09:09:51;5.90;99.90
5017;DHT22;2527;50.892;16.706;2023-11-22T09:12:17;5.90;99.90
5017;DHT22;2527;50.892;16.706;2023-11-22T09:14:45;5.90;99.90
5017;DHT22;2527;50.892;16.706;2023-11-22T09:17:11;5.90;99.90
5017;DHT22;2527;50.892;16.706;2023-11-22T09:19:37;5.90;99.90
5017;DHT22;2527;50.892;16.706;2023-11-22T09:22:03;5.90;99.90
5017;DHT22;2527;50.892;16.706;2023-11-22T09:24:32;5.90;99.90
5017;DHT22;2527;50.892;16.706;2023-11-22T09:26:57;5.90;99.90
5017;DHT22;2527;50.892;16.706;2023-11-22T09:29:23;5.90;99.90
5017;DHT22;2527;50.892;16.706;2023-11-22T09:31:48;5.90;99.90
5017;DHT22;2527;50.892;16.706;2023-11-22T09:34:17;5.90;99.90
5017;DHT22;2527;50.892;16.706;2023-11-22T09:36:44;5.90;99.90
5017;DHT22;2527;50.892;16.706;2023-11-22T09:39:10;7.00;99.90
5017;DHT22;2527;50.892;16.706;2023-11-22T09:41:35;5.90;99.90
5017;DHT22;2527;50.892;16.706;2023-11-22T09:44:01;5.90;99.90
5017;DHT22;2527;50.892;16.706;2023-11-22T09:46:28;7.40;99.90
5017;DHT22;2527;50.892;16.706;2023-11-22T09:48:56;5.80;99.90
5017;DHT22;2527;50.892;16.706;2023-11-22T09:51:23;5.90;99.90
5017;DHT22;2527;50.892;16.706;2023-11-22T09:53:57;5.80;99.90
5017;DHT22;2527;50.892;16.706;2023-11-22T09:56:25;5.80;99.90
5017;DHT22;2527;50.892;16.706;2023-11-22T09:58:52;5.80;99.90
5017;DHT22;2527;50.892;16.706;2023-11-22T10:01:22;5.80;99.90
5017;DHT22;2527;50.892;16.706;2023-11-22T10:03:48;5.80;99.90
5017;DHT22;2527;50.892;16.706;2023-11-22T10:06:14;4.30;99.90
5017;DHT22;2527;50.892;16.706;2023-11-22T10:08:41;7.60;99.90
5017;DHT22;2527;50.892;16.706;2023-11-22T10:11:06;5.80;99.90
5017;DHT22;2527;50.892;16.706;2023-11-22T10:13:32;5.80;99.90
5017;DHT22;2527;50.892;16.706;2023-11-22T10:16:10;5.80;99.90
5017;DHT22;2527;50.892;16.706;2023-11-22T10:18:40;5.80;99.90
5017;DHT22;2527;50.892;16.706;2023-11-22T10:21:18;5.80;99.90
5017;DHT22;2527;50.892;16.706;2023-11-22T10:23:44;6.00;99.90
5017;DHT22;2527;50.892;16.706;2023-11-22T10:26:09;5.80;99.90
5017;DHT22;2527;50.892;16.706;2023-11-22T10:28:36;5.80;99.90
5017;DHT22;2527;50.892;16.706;2023-11-22T10:31:06;5.80;99.90
5017;DHT22;2527;50.892;16.706;2023-11-22T10:33:33;5.80;99.90
5017;DHT22;2527;50.892;16.706;2023-11-22T10:35:59;5.80;99.90
5017;DHT22;2527;50.892;16.706;2023-11-22T10:38:28;5.80;99.90
5017;DHT22;2527;50.892;16.706;2023-11-22T10:40:54;5.80;99.90
5017;DHT22;2527;50.892;16.706;2023-11-22T10:43:20;5.80;99.90
5017;DHT22;2527;50.892;16.706;2023-11-22T10:45:48;5.80;99.90
5017;DHT22;2527;50.892;16.706;2023-11-22T10:48:17;5.90;99.90
5017;DHT22;2527;50.892;16.706;2023-11-22T10:50:43;5.80;99.90
5017;DHT22;2527;50.892;16.706;2023-11-22T10:53:11;5.80;99.90
5017;DHT22;2527;50.892;16.706;2023-11-22T10:55:38;5.90;99.90
5017;DHT22;2527;50.892;16.706;2023-11-22T10:58:06;5.80;99.90
5017;DHT22;2527;50.892;16.706;2023-11-22T11:00:33;5.80;99.90
5017;DHT22;2527;50.892;16.706;2023-11-22T11:05:58;5.90;99.90
5017;DHT22;2527;50.892;16.706;2023-11-22T11:08:28;5.90;99.90
5017;DHT22;2527;50.892;16.706;2023-11-22T11:10:57;5.90;99.90
5017;DHT22;2527;50.892;16.706;2023-11-22T11:13:23;5.90;99.90
5017;DHT22;2527;50.892;16.706;2023-11-22T11:15:49;5.90;99.90
5017;DHT22;2527;50.892;16.706;2023-11-22T11:18:16;5.90;99.90
5017;DHT22;2527;50.892;16.706;2023-11-22T11:20:49;5.90;99.90
5017;DHT22;2527;50.892;16.706;2023-11-22T11:23:25;5.90;99.90
5017;DHT22;2527;50.892;16.706;2023-11-22T11:25:58;5.90;99.90
5017;DHT22;2527;50.892;16.706;2023-11-22T11:28:27;5.90;99.90
5017;DHT22;2527;50.892;16.706;2023-11-22T11:31:06;5.90;99.90
5017;DHT22;2527;50.892;16.706;2023-11-22T11:33:32;5.90;99.90
5017;DHT22;2527;50.892;16.706;2023-11-22T11:36:00;5.90;99.90
5017;DHT22;2527;50.892;16.706;2023-11-22T11:38:28;5.90;99.90
5017;DHT22;2527;50.892;16.706;2023-11-22T11:40:55;5.90;99.90
5017;DHT22;2527;50.892;16.706;2023-11-22T11:43:39;5.90;99.90
5017;DHT22;2527;50.892;16.706;2023-11-22T11:46:09;5.90;99.90
5017;DHT22;2527;50.892;16.706;2023-11-22T11:48:35;5.90;99.90
5017;DHT22;2527;50.892;16.706;2023-11-22T11:51:01;5.90;99.90
5017;DHT22;2527;50.892;16.706;2023-11-22T11:53:27;5.90;99.90
5017;DHT22;2527;50.892;16.706;2023-11-22T11:55:53;5.90;99.90
5017;DHT22;2527;50.892;16.706;2023-11-22T11:58:20;5.90;99.90
5017;DHT22;2527;50.892;16.706;2023-11-22T12:00:49;5.90;99.90
5017;DHT22;2527;50.892;16.706;2023-11-22T12:03:16;5.80;99.90
5017;DHT22;2527;50.892;16.706;2023-11-22T12:05:46;5.80;99.90
5017;DHT22;2527;50.892;16.706;2023-11-22T12:08:12;5.80;99.90
5017;DHT22;2527;50.892;16.706;2023-11-22T12:10:44;5.80;99.90
5017;DHT22;2527;50.892;16.706;2023-11-22T12:13:17;5.80;99.90
5017;DHT22;2527;50.892;16.706;2023-11-22T12:15:43;5.70;99.90
5017;DHT22;2527;50.892;16.706;2023-11-22T12:18:10;5.70;99.90
5017;DHT22;2527;50.892;16.706;2023-11-22T12:20:38;5.70;99.90
5017;DHT22;2527;50.892;16.706;2023-11-22T12:23:04;5.70;99.90
5017;DHT22;2527;50.892;16.706;2023-11-22T12:25:30;5.70;99.90
5017;DHT22;2527;50.892;16.706;2023-11-22T12:27:56;5.70;99.90
5017;DHT22;2527;50.892;16.706;2023-11-22T12:30:31;5.70;99.90
5017;DHT22;2527;50.892;16.706;2023-11-22T12:33:01;5.70;99.90
5017;DHT22;2527;50.892;16.706;2023-11-22T12:35:28;5.70;99.90
5017;DHT22;2527;50.892;16.706;2023-11-22T12:37:55;5.70;99.90
5017;DHT22;2527;50.892;16.706;2023-11-22T12:40:21;5.70;99.90
5017;DHT22;2527;50.892;16.706;2023-11-22T12:42:47;5.70;99.90
5017;DHT22;2527;50.892;16.706;2023-11-22T12:45:23;5.70;99.90
5017;DHT22;2527;50.892;16.706;2023-11-22T12:47:50;5.70;99.90
5017;DHT22;2527;50.892;16.706;2023-11-22T12:50:35;5.70;99.90
5017;DHT22;2527;50.892;16.706;2023-11-22T12:53:07;5.70;99.90
5017;DHT22;2527;50.892;16.706;2023-11-22T12:55:34;5.70;99.90
5017;DHT22;2527;50.892;16.706;2023-11-22T12:58:01;5.70;99.90
5017;DHT22;2527;50.892;16.706;2023-11-22T13:00:29;5.70;99.90
5017;DHT22;2527;50.892;16.706;2023-11-22T13:02:55;5.70;99.90
5017;DHT22;2527;50.892;16.706;2023-11-22T13:05:25;5.70;99.90
5017;DHT22;2527;50.892;16.706;2023-11-22T13:07:51;5.60;99.90
5017;DHT22;2527;50.892;16.706;2023-11-22T13:10:18;5.60;99.90
5017;DHT22;2527;50.892;16.706;2023-11-22T13:12:44;5.60;99.90
5017;DHT22;2527;50.892;16.706;2023-11-22T13:15:14;5.60;99.90
5017;DHT22;2527;50.892;16.706;2023-11-22T13:17:40;5.60;99.90
5017;DHT22;2527;50.892;16.706;2023-11-22T13:20:06;5.50;99.90
5017;DHT22;2527;50.892;16.706;2023-11-22T13:22:39;5.60;99.90
5017;DHT22;2527;50.892;16.706;2023-11-22T13:25:05;5.60;99.90
5017;DHT22;2527;50.892;16.706;2023-11-22T13:27:32;5.60;99.90
5017;DHT22;2527;50.892;16.706;2023-11-22T13:29:58;5.60;99.90
5017;DHT22;2527;50.892;16.706;2023-11-22T13:32:24;5.60;99.90
5017;DHT22;2527;50.892;16.706;2023-11-22T13:34:51;5.60;99.90
5017;DHT22;2527;50.892;16.706;2023-11-22T13:37:23;5.60;99.90
5017;DHT22;2527;50.892;16.706;2023-11-22T13:39:49;5.60;99.90
5017;DHT22;2527;50.892;16.706;2023-11-22T13:42:15;5.60;99.90
5017;DHT22;2527;50.892;16.706;2023-11-22T13:44:41;5.60;99.90
5017;DHT22;2527;50.892;16.706;2023-11-22T13:47:09;5.60;99.90
5017;DHT22;2527;50.892;16.706;2023-11-22T13:49:35;5.50;99.90
5017;DHT22;2527;50.892;16.706;2023-11-22T13:52:02;5.50;99.90
5017;DHT22;2527;50.892;16.706;2023-11-22T13:54:28;5.50;99.90
5017;DHT22;2527;50.892;16.706;2023-11-22T13:56:53;5.50;99.90
5017;DHT22;2527;50.892;16.706;2023-11-22T13:59:19;5.50;99.90
5017;DHT22;2527;50.892;16.706;2023-11-22T14:01:46;5.40;99.90
5017;DHT22;2527;50.892;16.706;2023-11-22T14:04:11;5.40;99.90
5017;DHT22;2527;50.892;16.706;2023-11-22T14:06:37;5.40;99.90
5017;DHT22;2527;50.892;16.706;2023-11-22T14:09:03;5.40;99.90
5017;DHT22;2527;50.892;16.706;2023-11-22T14:11:28;5.40;99.90
5017;DHT22;2527;50.892;16.706;2023-11-22T14:13:55;5.40;99.90
5017;DHT22;2527;50.892;16.706;2023-11-22T14:16:22;5.40;99.90
5017;DHT22;2527;50.892;16.706;2023-11-22T14:18:48;5.30;99.90
5017;DHT22;2527;50.892;16.706;2023-11-22T14:21:15;5.40;99.90
5017;DHT22;2527;50.892;16.706;2023-11-22T14:23:42;5.30;99.90
5017;DHT22;2527;50.892;16.706;2023-11-22T14:26:08;5.30;99.90
5017;DHT22;2527;50.892;16.706;2023-11-22T14:28:34;5.30;99.90
5017;DHT22;2527;50.892;16.706;2023-11-22T14:30:59;5.30;99.90
5017;DHT22;2527;50.892;16.706;2023-11-22T14:33:25;5.30;99.90
5017;DHT22;2527;50.892;16.706;2023-11-22T14:35:52;5.30;99.90
5017;DHT22;2527;50.892;16.706;2023-11-22T14:38:17;5.20;99.90
5017;DHT22;2527;50.892;16.706;2023-11-22T14:40:43;5.20;99.90
5017;DHT22;2527;50.892;16.706;2023-11-22T14:43:09;5.10;99.90
5017;DHT22;2527;50.892;16.706;2023-11-22T14:45:35;5.20;99.90
5017;DHT22;2527;50.892;16.706;2023-11-22T14:48:02;5.20;99.90
5017;DHT22;2527;50.892;16.706;2023-11-22T14:50:28;5.20;99.90
5017;DHT22;2527;50.892;16.706;2023-11-22T14:52:54;5.10;99.90
5017;DHT22;2527;50.892;16.706;2023-11-22T14:55:20;5.10;99.90
5017;DHT22;2527;50.892;16.706;2023-11-22T14:57:46;3.20;99.90
5017;DHT22;2527;50.892;16.706;2023-11-22T15:00:13;5.10;99.90
5017;DHT22;2527;50.892;16.706;2023-11-22T15:02:40;5.10;99.90
5017;DHT22;2527;50.892;16.706;2023-11-22T15:05:07;5.10;99.90
5017;DHT22;2527;50.892;16.706;2023-11-22T15:07:37;5.10;99.90
5017;DHT22;2527;50.892;16.706;2023-11-22T15:10:06;5.10;99.90
5017;DHT22;2527;50.892;16.706;2023-11-22T15:12:33;5.20;99.90
5017;DHT22;2527;50.892;16.706;2023-11-22T15:15:00;6.70;99.90
5017;DHT22;2527;50.892;16.706;2023-11-22T15:17:26;5.20;99.90
5017;DHT22;2527;50.892;16.706;2023-11-22T15:19:51;5.20;99.90
5017;DHT22;2527;50.892;16.706;2023-11-22T15:22:17;5.10;99.90
5017;DHT22;2527;50.892;16.706;2023-11-22T15:24:43;5.10;99.90
5017;DHT22;2527;50.892;16.706;2023-11-22T15:27:10;5.10;99.90
5017;DHT22;2527;50.892;16.706;2023-11-22T15:29:35;5.10;99.90
5017;DHT22;2527;50.892;16.706;2023-11-22T15:32:01;5.10;99.90
5017;DHT22;2527;50.892;16.706;2023-11-22T15:34:28;5.10;99.90
5017;DHT22;2527;50.892;16.706;2023-11-22T15:36:53;4.30;99.90
5017;DHT22;2527;50.892;16.706;2023-11-22T15:39:19;5.10;99.90
5017;DHT22;2527;50.892;16.706;2023-11-22T15:41:47;5.10;99.90
5017;DHT22;2527;50.892;16.706;2023-11-22T15:44:13;5.10;99.90
5017;DHT22;2527;50.892;16.706;2023-11-22T15:46:42;5.10;99.90
5017;DHT22;2527;50.892;16.706;2023-11-22T15:49:08;5.10;99.90
5017;DHT22;2527;50.892;16.706;2023-11-22T15:51:35;5.10;99.90
5017;DHT22;2527;50.892;16.706;2023-11-22T15:54:01;5.10;99.90
5017;DHT22;2527;50.892;16.706;2023-11-22T15:56:27;5.10;99.90
5017;DHT22;2527;50.892;16.706;2023-11-22T15:58:53;5.10;99.90
5017;DHT22;2527;50.892;16.706;2023-11-22T16:01:31;5.10;99.90